createdAt,value
2023-01-30T00:01:46.684Z,17.40
2023-01-30T00:04:21.635Z,18.70
2023-01-30T00:06:48.497Z,18.73
2023-01-30T00:09:15.495Z,15.77
2023-01-30T00:11:42.563Z,17.17
2023-01-30T00:14:10.333Z,18.02
2023-01-30T00:16:37.237Z,17.33
2023-01-30T00:19:04.264Z,17.98
2023-01-30T00:21:31.176Z,16.73
2023-01-30T00:24:01.067Z,17.95
2023-01-30T00:26:27.956Z,17.45
2023-01-30T00:28:55.850Z,16.60
2023-01-30T00:31:22.707Z,17.23
2023-01-30T00:33:49.678Z,15.18
2023-01-30T00:36:17.603Z,16.20
2023-01-30T00:38:44.356Z,16.50
2023-01-30T00:41:13.133Z,15.75
2023-01-30T00:43:59.387Z,16.88
2023-01-30T00:46:55.237Z,16.42
2023-01-30T00:49:23.185Z,16.52
2023-01-30T00:51:50.015Z,17.17
2023-01-30T00:54:17.966Z,16.73
2023-01-30T00:56:45.947Z,17.23
2023-01-30T00:59:13.887Z,16.98
2023-01-30T01:01:40.748Z,15.73
2023-01-30T01:04:10.377Z,16.88
2023-01-30T01:06:38.610Z,14.75
2023-01-30T01:09:07.484Z,17.83
2023-01-30T01:11:34.470Z,15.63
2023-01-30T01:14:03.614Z,16.27
2023-01-30T01:16:35.343Z,16.55
2023-01-30T01:19:04.232Z,14.32
2023-01-30T01:21:32.046Z,16.63
2023-01-30T01:24:01.122Z,16.45
2023-01-30T01:26:29.070Z,16.88
2023-01-30T01:28:59.565Z,18.15
2023-01-30T01:31:26.837Z,14.77
2023-01-30T01:33:53.722Z,15.90
2023-01-30T01:36:52.240Z,16.98
2023-01-30T01:39:09.609Z,16.67
2023-01-30T01:41:36.399Z,16.95
2023-01-30T01:44:12.438Z,16.33
2023-01-30T01:46:57.325Z,16.33
2023-01-30T01:49:32.820Z,17.20
2023-01-30T01:52:12.179Z,14.75
2023-01-30T01:54:46.062Z,15.43
2023-01-30T01:57:35.089Z,14.40
2023-01-30T02:00:12.902Z,15.82
2023-01-30T02:02:51.831Z,16.42
2023-01-30T02:05:20.568Z,13.52
2023-01-30T02:08:10.130Z,17.00
2023-01-30T02:10:51.258Z,14.60
2023-01-30T02:13:20.433Z,15.10
2023-01-30T02:15:47.259Z,13.93
2023-01-30T02:18:16.323Z,13.68
2023-01-30T02:21:27.236Z,13.75
2023-01-30T02:24:34.696Z,16.92
2023-01-30T02:27:34.042Z,15.82
2023-01-30T02:30:56.974Z,13.38
2023-01-30T02:33:55.496Z,14.80
2023-01-30T02:37:06.562Z,15.25
2023-01-30T02:40:14.162Z,15.55
2023-01-30T02:43:02.532Z,14.40
2023-01-30T02:46:12.660Z,15.90
2023-01-30T02:48:47.116Z,16.00
2023-01-30T02:51:25.092Z,15.13
2023-01-30T02:53:52.401Z,14.95
2023-01-30T02:56:20.000Z,15.88
2023-01-30T02:58:54.942Z,16.08
2023-01-30T03:02:05.954Z,16.23
2023-01-30T03:05:04.829Z,15.88
2023-01-30T03:08:09.070Z,15.60
2023-01-30T03:10:52.458Z,14.75
2023-01-30T03:13:38.400Z,16.33
2023-01-30T03:16:24.234Z,16.63
2023-01-30T03:18:51.209Z,17.00
2023-01-30T03:21:18.305Z,16.13
2023-01-30T03:23:47.466Z,15.82
2023-01-30T03:26:24.182Z,16.20
2023-01-30T03:28:53.652Z,16.80
2023-01-30T03:31:21.161Z,15.57
2023-01-30T03:33:48.147Z,15.40
2023-01-30T03:36:15.201Z,16.08
2023-01-30T03:38:43.753Z,16.95
2023-01-30T03:41:11.229Z,15.35
2023-01-30T03:43:38.577Z,17.52
2023-01-30T03:46:05.373Z,16.90
2023-01-30T03:48:33.413Z,17.05
2023-01-30T03:51:00.413Z,15.40
2023-01-30T03:53:27.192Z,16.17
2023-01-30T03:55:53.974Z,15.50
2023-01-30T03:58:21.099Z,13.32
2023-01-30T04:00:48.322Z,14.35
2023-01-30T04:03:15.738Z,16.55
2023-01-30T04:05:45.851Z,16.00
2023-01-30T04:08:13.788Z,16.42
2023-01-30T04:10:41.455Z,14.70
2023-01-30T04:13:08.238Z,15.55
2023-01-30T04:15:35.712Z,14.63
2023-01-30T04:18:02.558Z,16.70
2023-01-30T04:20:30.257Z,16.95
2023-01-30T04:22:57.816Z,15.77
2023-01-30T04:25:24.799Z,16.25
2023-01-30T04:27:51.574Z,16.05
2023-01-30T04:30:18.631Z,16.48
2023-01-30T04:32:45.453Z,14.48
2023-01-30T04:35:12.918Z,15.38
2023-01-30T04:37:41.341Z,18.40
2023-01-30T04:40:10.456Z,15.20
2023-01-30T04:42:37.685Z,16.70
2023-01-30T04:45:05.186Z,16.33
2023-01-30T04:47:32.477Z,15.07
2023-01-30T04:50:00.444Z,16.20
2023-01-30T04:52:27.357Z,14.98
2023-01-30T04:54:54.392Z,14.23
2023-01-30T04:57:21.153Z,15.02
2023-01-30T04:59:49.150Z,12.43
2023-01-30T05:02:16.141Z,13.85
2023-01-30T05:04:42.979Z,14.70
2023-01-30T05:07:10.666Z,14.75
2023-01-30T05:09:38.159Z,14.95
2023-01-30T05:12:05.697Z,13.88
2023-01-30T05:14:34.982Z,13.18
2023-01-30T05:17:03.606Z,14.30
2023-01-30T05:19:30.491Z,14.65
2023-01-30T05:21:57.975Z,14.55
2023-01-30T05:24:25.329Z,15.18
2023-01-30T05:26:52.643Z,14.35
2023-01-30T05:29:19.891Z,14.18
2023-01-30T05:31:46.689Z,15.52
2023-01-30T05:34:13.936Z,14.70
2023-01-30T05:36:40.786Z,15.35
2023-01-30T05:39:07.623Z,14.13
2023-01-30T05:41:34.396Z,14.95
2023-01-30T05:44:01.194Z,14.50
2023-01-30T05:46:28.069Z,15.27
2023-01-30T05:48:54.892Z,15.90
2023-01-30T05:51:25.495Z,14.35
2023-01-30T05:53:52.981Z,14.95
2023-01-30T05:56:20.366Z,16.05
2023-01-30T05:58:55.043Z,14.35
2023-01-30T06:01:23.514Z,14.27
2023-01-30T06:03:50.807Z,15.00
2023-01-30T06:06:18.109Z,16.48
2023-01-30T06:08:44.959Z,15.57
2023-01-30T06:11:15.573Z,14.82
2023-01-30T06:13:42.999Z,16.08
2023-01-30T06:16:12.631Z,14.50
2023-01-30T06:18:39.924Z,15.75
2023-01-30T06:21:07.661Z,15.85
2023-01-30T06:23:35.313Z,17.08
2023-01-30T06:26:04.596Z,15.13
2023-01-30T06:28:32.349Z,15.90
2023-01-30T06:30:59.331Z,18.75
2023-01-30T06:33:26.233Z,17.85
2023-01-30T06:35:53.272Z,16.65
2023-01-30T06:38:20.730Z,16.65
2023-01-30T06:40:49.974Z,18.92
2023-01-30T06:43:17.452Z,16.88
2023-01-30T06:45:44.338Z,18.20
2023-01-30T06:48:11.299Z,17.45
2023-01-30T06:50:38.195Z,17.52
2023-01-30T06:53:07.512Z,18.58
2023-01-30T06:55:36.361Z,15.60
2023-01-30T06:58:12.922Z,15.45
2023-01-30T07:00:41.898Z,15.70
2023-01-30T07:03:14.387Z,16.33
2023-01-30T07:05:43.419Z,15.20
2023-01-30T07:08:11.289Z,16.95
2023-01-30T07:10:39.034Z,15.85
2023-01-30T07:13:06.023Z,15.93
2023-01-30T07:15:33.318Z,15.68
2023-01-30T07:18:01.429Z,15.50
2023-01-30T07:20:30.159Z,13.75
2023-01-30T07:22:57.888Z,16.75
2023-01-30T07:25:27.173Z,14.98
2023-01-30T07:28:02.573Z,14.85
2023-01-30T07:30:35.852Z,16.75
2023-01-30T07:33:06.248Z,13.73
2023-01-30T07:35:35.159Z,15.32
2023-01-30T07:38:02.200Z,14.88
2023-01-30T07:40:29.088Z,14.40
2023-01-30T07:43:12.107Z,15.82
2023-01-30T07:45:48.730Z,14.13
2023-01-30T07:48:18.983Z,15.13
2023-01-30T07:50:46.580Z,14.00
2023-01-30T07:53:16.116Z,14.52
2023-01-30T07:55:43.322Z,15.23
2023-01-30T07:58:16.842Z,14.93
2023-01-30T08:00:44.639Z,15.30
2023-01-30T08:03:14.127Z,16.17
2023-01-30T08:05:41.065Z,15.20
2023-01-30T08:08:07.880Z,12.95
2023-01-30T08:10:34.661Z,16.17
2023-01-30T08:13:01.433Z,14.70
2023-01-30T08:15:28.239Z,15.00
2023-01-30T08:17:56.279Z,16.27
2023-01-30T08:20:23.966Z,14.95
2023-01-30T08:22:50.784Z,15.35
2023-01-30T08:25:17.831Z,15.15
2023-01-30T08:27:44.684Z,16.02
2023-01-30T08:30:13.211Z,15.15
2023-01-30T08:32:40.149Z,13.70
2023-01-30T08:35:07.842Z,14.43
2023-01-30T08:37:34.942Z,13.88
2023-01-30T08:40:01.779Z,13.68
2023-01-30T08:42:28.542Z,14.50
2023-01-30T08:44:55.346Z,14.07
2023-01-30T08:47:22.111Z,13.25
2023-01-30T08:49:51.269Z,13.45
2023-01-30T08:52:18.380Z,12.95
2023-01-30T08:54:45.368Z,16.63
2023-01-30T08:57:14.146Z,14.65
2023-01-30T08:59:41.572Z,16.73
2023-01-30T09:02:12.882Z,16.80
2023-01-30T09:04:40.161Z,15.80
2023-01-30T09:07:07.021Z,17.10
2023-01-30T09:09:34.007Z,14.45
2023-01-30T09:12:00.811Z,15.15
2023-01-30T09:14:27.696Z,15.40
2023-01-30T09:16:57.139Z,14.38
2023-01-30T09:19:26.514Z,14.20
2023-01-30T09:21:55.346Z,15.20
2023-01-30T09:24:27.714Z,13.82
2023-01-30T09:26:57.517Z,12.10
2023-01-30T09:29:25.636Z,14.68
2023-01-30T09:31:53.056Z,15.63
2023-01-30T09:34:20.029Z,14.13
2023-01-30T09:36:46.784Z,13.23
2023-01-30T09:39:13.567Z,13.48
2023-01-30T09:42:23.615Z,12.93
2023-01-30T09:45:37.697Z,12.77
2023-01-30T09:48:19.610Z,13.73
2023-01-30T09:51:05.461Z,13.75
2023-01-30T09:54:21.933Z,12.82
2023-01-30T09:57:21.304Z,15.88
2023-01-30T10:00:22.607Z,16.23
2023-01-30T10:03:08.192Z,17.90
2023-01-30T10:05:58.293Z,12.85
2023-01-30T10:08:49.550Z,12.48
2023-01-30T10:11:22.271Z,14.25
2023-01-30T10:17:14.794Z,12.13
2023-01-30T10:19:59.573Z,12.55
2023-01-30T10:22:52.617Z,13.40
2023-01-30T10:25:41.729Z,11.90
2023-01-30T10:29:06.328Z,12.82
2023-01-30T10:31:50.308Z,13.75
2023-01-30T10:37:13.439Z,13.30
2023-01-30T10:40:21.915Z,13.82
2023-01-30T10:43:38.161Z,15.45
2023-01-30T10:46:23.154Z,14.93
2023-01-30T10:49:06.549Z,15.48
2023-01-30T10:52:01.378Z,13.82
2023-01-30T10:54:43.023Z,13.82
2023-01-30T10:57:43.659Z,15.40
2023-01-30T11:00:50.315Z,18.77
2023-01-30T11:03:44.116Z,15.63
2023-01-30T11:06:19.000Z,14.88
2023-01-30T11:08:46.364Z,14.18
2023-01-30T11:11:54.821Z,13.70
2023-01-30T11:14:21.738Z,15.00
2023-01-30T11:16:53.932Z,14.80
2023-01-30T11:19:25.513Z,12.55
2023-01-30T11:22:04.403Z,15.25
2023-01-30T11:24:40.591Z,15.00
2023-01-30T11:27:26.811Z,14.88
2023-01-30T11:30:03.470Z,14.30
2023-01-30T11:32:30.412Z,14.23
2023-01-30T11:35:15.728Z,14.60
2023-01-30T11:37:45.372Z,15.13
2023-01-30T11:40:23.854Z,15.52
2023-01-30T11:43:14.134Z,14.23
2023-01-30T11:45:47.873Z,15.98
2023-01-30T11:48:32.795Z,15.38
2023-01-30T11:51:15.598Z,15.07
2023-01-30T11:53:51.189Z,14.32
2023-01-30T11:56:25.707Z,13.75
2023-01-30T11:59:00.622Z,13.93
2023-01-30T12:01:33.905Z,14.20
2023-01-30T12:04:07.027Z,13.43
2023-01-30T12:06:37.925Z,14.65
2023-01-30T12:09:06.238Z,15.50
2023-01-30T12:11:44.669Z,15.90
2023-01-30T12:14:42.164Z,16.70
2023-01-30T12:17:34.811Z,14.52
2023-01-30T12:20:20.359Z,13.35
2023-01-30T12:23:13.851Z,14.18
2023-01-30T12:28:32.688Z,13.02
2023-01-30T12:31:26.428Z,12.82
2023-01-30T12:33:55.494Z,13.93
2023-01-30T12:36:36.445Z,12.30
2023-01-30T12:39:40.857Z,12.50
2023-01-30T12:42:26.229Z,12.43
2023-01-30T12:45:27.120Z,10.82
2023-01-30T12:48:31.208Z,11.63
2023-01-30T12:51:30.275Z,10.80
2023-01-30T12:54:34.860Z,10.35
2023-01-30T12:57:24.511Z,10.35
2023-01-30T13:00:11.133Z,9.70
2023-01-30T13:03:00.641Z,10.45
2023-01-30T13:06:05.474Z,9.23
2023-01-30T13:08:59.285Z,7.30
2023-01-30T13:11:54.106Z,8.15
2023-01-30T13:15:02.709Z,7.95
2023-01-30T13:17:56.856Z,6.65
2023-01-30T13:20:47.084Z,8.10
2023-01-30T13:23:44.883Z,7.40
2023-01-30T13:26:20.294Z,8.55
2023-01-30T13:28:55.340Z,7.75
2023-01-30T13:31:27.120Z,7.90
2023-01-30T13:34:07.067Z,7.25
2023-01-30T13:37:01.118Z,6.75
2023-01-30T13:39:42.292Z,5.93
2023-01-30T13:42:28.003Z,7.65
2023-01-30T13:44:57.247Z,7.07
2023-01-30T13:48:01.873Z,6.57
2023-01-30T13:51:15.143Z,7.68
2023-01-30T13:53:53.183Z,4.93
2023-01-30T13:56:40.808Z,5.22
2023-01-30T13:59:33.903Z,6.72
2023-01-30T14:02:07.163Z,6.18
2023-01-30T14:04:59.024Z,4.47
2023-01-30T14:07:31.493Z,5.65
2023-01-30T14:10:10.539Z,5.00
2023-01-30T14:12:44.322Z,4.30
2023-01-30T14:15:14.567Z,4.47
2023-01-30T14:18:13.979Z,4.32
2023-01-30T14:20:50.478Z,4.50
2023-01-30T14:23:36.141Z,4.65
2023-01-30T14:26:03.162Z,4.97
2023-01-30T14:28:29.888Z,4.95
2023-01-30T14:31:02.418Z,4.78
2023-01-30T14:33:48.954Z,4.18
2023-01-30T14:36:15.749Z,5.15
2023-01-30T14:38:44.452Z,4.80
2023-01-30T14:41:28.403Z,4.72
2023-01-30T14:43:55.442Z,4.80
2023-01-30T14:46:22.240Z,5.20
2023-01-30T14:48:55.296Z,6.57
2023-01-30T14:51:43.492Z,18.10
2023-01-30T14:54:33.327Z,12.68
2023-01-30T14:57:23.044Z,10.35
2023-01-30T15:00:14.198Z,8.00
2023-01-30T15:02:57.776Z,22.02
2023-01-30T15:05:34.912Z,8.82
2023-01-30T15:08:22.667Z,6.75
2023-01-30T15:10:51.315Z,15.35
2023-01-30T15:13:27.286Z,9.27
2023-01-30T15:16:55.475Z,7.30
2023-01-30T15:20:03.061Z,7.47
2023-01-30T15:22:57.463Z,6.10
2023-01-30T15:25:38.711Z,5.50
2023-01-30T15:28:38.525Z,5.60
2023-01-30T15:31:20.011Z,5.18
2023-01-30T15:33:52.844Z,5.38
2023-01-30T15:36:27.319Z,5.13
2023-01-30T15:39:17.580Z,7.38
2023-01-30T15:41:44.507Z,4.55
2023-01-30T15:44:19.125Z,5.15
2023-01-30T15:47:04.408Z,5.85
2023-01-30T15:50:02.564Z,5.32
2023-01-30T15:52:44.393Z,5.07
2023-01-30T15:55:26.642Z,7.13
2023-01-30T15:58:01.682Z,3.50
2023-01-30T16:00:36.847Z,4.65
2023-01-30T16:03:11.709Z,5.95
2023-01-30T16:05:51.778Z,9.63
2023-01-30T16:08:26.293Z,7.35
2023-01-30T16:10:53.827Z,8.70
2023-01-30T16:13:23.709Z,12.27
2023-01-30T16:16:08.245Z,13.82
2023-01-30T16:18:48.100Z,6.25
2023-01-30T16:21:34.406Z,5.97
2023-01-30T16:24:11.741Z,7.90
2023-01-30T16:26:44.515Z,10.40
2023-01-30T16:29:21.483Z,11.13
2023-01-30T16:31:52.914Z,7.47
2023-01-30T16:34:32.404Z,7.72
2023-01-30T16:37:08.438Z,6.28
2023-01-30T16:39:37.613Z,7.07
2023-01-30T16:42:26.594Z,10.32
2023-01-30T16:45:35.872Z,11.25
2023-01-30T16:48:30.811Z,6.22
2023-01-30T16:51:00.790Z,4.95
2023-01-30T16:53:32.124Z,9.95
2023-01-30T16:56:01.918Z,11.73
2023-01-30T16:58:35.013Z,5.63
2023-01-30T17:01:05.819Z,5.55
2023-01-30T17:03:38.803Z,6.05
2023-01-30T17:09:35.477Z,6.95
2023-01-30T17:12:25.476Z,6.63
2023-01-30T17:15:13.327Z,5.32
2023-01-30T17:17:44.035Z,6.38
2023-01-30T17:20:12.990Z,8.38
2023-01-30T17:22:43.118Z,7.13
2023-01-30T17:25:39.728Z,6.05
2023-01-30T17:28:08.873Z,6.10
2023-01-30T17:30:35.945Z,8.30
2023-01-30T17:33:02.739Z,5.90
2023-01-30T17:35:29.800Z,5.55
2023-01-30T17:38:05.229Z,4.82
2023-01-30T17:40:39.614Z,6.28
2023-01-30T17:43:07.065Z,5.50
2023-01-30T17:45:35.466Z,5.07
2023-01-30T17:48:03.312Z,5.70
2023-01-30T17:50:32.398Z,5.55
2023-01-30T17:52:59.911Z,6.10
2023-01-30T17:55:27.612Z,7.63
2023-01-30T17:57:55.042Z,9.50
2023-01-30T18:00:25.004Z,10.68
2023-01-30T18:02:53.465Z,9.40
2023-01-30T18:05:23.291Z,9.32
2023-01-30T18:07:50.198Z,8.65
2023-01-30T18:10:20.723Z,7.72
2023-01-30T18:12:47.743Z,6.50
2023-01-30T18:15:16.418Z,9.98
2023-01-30T18:17:49.445Z,9.80
2023-01-30T18:22:46.960Z,6.70
2023-01-30T18:25:14.821Z,8.82
2023-01-30T18:27:44.077Z,7.57
2023-01-30T18:30:17.458Z,6.45
2023-01-30T18:32:53.627Z,8.40
2023-01-30T18:35:22.577Z,9.65
2023-01-30T18:37:50.074Z,14.30
2023-01-30T18:40:19.083Z,7.50
2023-01-30T18:42:46.829Z,14.95
2023-01-30T18:45:13.659Z,7.43
2023-01-30T18:47:41.469Z,7.65
2023-01-30T18:50:09.105Z,6.72
2023-01-30T18:52:36.209Z,6.30
2023-01-30T18:55:03.703Z,6.60
2023-01-30T18:57:30.557Z,7.10
2023-01-30T18:59:57.617Z,8.15
2023-01-30T19:02:25.112Z,6.70
2023-01-30T19:04:52.631Z,7.07
2023-01-30T19:07:19.471Z,6.43
2023-01-30T19:09:46.616Z,6.50
2023-01-30T19:12:42.031Z,7.30
2023-01-30T19:15:10.114Z,7.22
2023-01-30T19:17:37.076Z,8.48
2023-01-30T19:20:10.601Z,6.57
2023-01-30T19:22:38.743Z,10.27
2023-01-30T19:25:06.512Z,7.43
2023-01-30T19:27:37.448Z,8.27
2023-01-30T19:30:05.160Z,10.93
2023-01-30T19:32:32.408Z,21.48
2023-01-30T19:34:59.272Z,16.77
2023-01-30T19:37:26.191Z,7.32
2023-01-30T19:39:53.285Z,7.15
2023-01-30T19:42:20.310Z,7.95
2023-01-30T19:44:47.147Z,9.60
2023-01-30T19:47:14.385Z,7.38
2023-01-30T19:49:42.324Z,7.28
2023-01-30T19:52:09.257Z,6.97
2023-01-30T19:54:36.143Z,5.97
2023-01-30T19:57:03.387Z,8.38
2023-01-30T19:59:30.352Z,7.53
2023-01-30T20:01:57.832Z,7.03
2023-01-30T20:04:24.970Z,6.72
2023-01-30T20:06:51.828Z,7.78
2023-01-30T20:09:19.556Z,6.88
2023-01-30T20:11:46.719Z,6.97
2023-01-30T20:14:14.391Z,6.40
2023-01-30T20:16:41.612Z,7.47
2023-01-30T20:19:14.818Z,7.00
2023-01-30T20:21:43.009Z,7.68
2023-01-30T20:24:15.117Z,7.13
2023-01-30T20:26:43.277Z,5.63
2023-01-30T20:29:12.205Z,6.93
2023-01-30T20:31:40.300Z,7.30
2023-01-30T20:34:12.234Z,6.32
2023-01-30T20:36:39.462Z,6.20
2023-01-30T20:39:07.950Z,6.43
2023-01-30T20:41:37.583Z,7.30
2023-01-30T20:44:07.951Z,6.45
2023-01-30T20:46:41.662Z,5.32
2023-01-30T20:49:22.925Z,5.75
2023-01-30T20:51:52.709Z,5.05
2023-01-30T20:54:22.679Z,5.68
2023-01-30T20:56:52.714Z,5.30
2023-01-30T20:59:24.144Z,5.65
2023-01-30T21:01:52.236Z,5.22
2023-01-30T21:04:21.391Z,6.45
2023-01-30T21:06:48.286Z,5.00
2023-01-30T21:09:21.976Z,5.22
2023-01-30T21:11:52.615Z,4.82
2023-01-30T21:14:19.755Z,4.18
2023-01-30T21:16:48.684Z,6.40
2023-01-30T21:19:18.304Z,12.48
2023-01-30T21:21:53.627Z,50.80
2023-01-30T21:24:24.963Z,4.57
2023-01-30T21:26:54.075Z,6.53
2023-01-30T21:29:25.202Z,4.72
2023-01-30T21:31:54.349Z,9.60
2023-01-30T21:34:22.108Z,5.00
2023-01-30T21:37:09.984Z,5.05
2023-01-30T21:39:56.329Z,5.05
2023-01-30T21:42:42.312Z,5.40
2023-01-30T21:45:17.680Z,9.18
2023-01-30T21:47:45.585Z,5.30
2023-01-30T21:50:12.589Z,5.28
2023-01-30T21:52:40.178Z,6.57
2023-01-30T21:55:09.425Z,5.38
2023-01-30T21:57:36.601Z,5.72
2023-01-30T22:00:05.291Z,5.10
2023-01-30T22:02:32.113Z,4.85
2023-01-30T22:04:59.795Z,5.32
2023-01-30T22:07:27.043Z,5.22
2023-01-30T22:09:54.111Z,5.25
2023-01-30T22:12:20.952Z,5.28
2023-01-30T22:14:48.558Z,5.22
2023-01-30T22:17:15.434Z,13.98
2023-01-30T22:19:42.964Z,13.07
2023-01-30T22:22:10.484Z,6.85
2023-01-30T22:24:37.375Z,6.13
2023-01-30T22:27:05.431Z,5.57
2023-01-30T22:29:32.391Z,5.63
2023-01-30T22:31:59.180Z,4.93
2023-01-30T22:34:25.966Z,4.93
2023-01-30T22:36:53.113Z,4.88
2023-01-30T22:39:20.032Z,5.35
2023-01-30T22:41:46.824Z,6.28
2023-01-30T22:44:14.669Z,4.60
2023-01-30T22:46:41.825Z,4.57
2023-01-30T22:49:10.476Z,4.35
2023-01-30T22:51:40.826Z,4.32
2023-01-30T22:54:15.892Z,4.32
2023-01-30T22:56:47.006Z,4.90
2023-01-30T22:59:14.789Z,4.95
2023-01-30T23:01:48.232Z,6.20
2023-01-30T23:04:19.557Z,5.25
2023-01-30T23:06:48.948Z,5.28
2023-01-30T23:09:23.856Z,4.65
2023-01-30T23:12:13.956Z,5.45
2023-01-30T23:14:43.354Z,4.93
2023-01-30T23:17:29.064Z,5.82
2023-01-30T23:19:56.307Z,5.13
2023-01-30T23:22:23.207Z,5.00
2023-01-30T23:24:51.687Z,5.20
2023-01-30T23:27:20.788Z,5.65
2023-01-30T23:29:48.501Z,5.88
2023-01-30T23:32:19.032Z,5.03
2023-01-30T23:34:47.377Z,6.10
2023-01-30T23:37:16.077Z,6.05
2023-01-30T23:39:44.718Z,6.35
2023-01-30T23:42:11.703Z,6.22
2023-01-30T23:44:38.909Z,5.60
2023-01-30T23:47:06.306Z,5.35
2023-01-30T23:49:35.349Z,5.88
2023-01-30T23:52:02.690Z,5.35
2023-01-30T23:54:31.437Z,6.38
2023-01-30T23:56:58.241Z,5.90
2023-01-30T23:59:25.215Z,5.75
